METAR Data
IDs: Format: Raw Decoded Include TAF

Data at: 2125 UTC 26 Feb 2020

METAR for:PADK (Adak (NAS), AK, US)
Text:PADK 262056Z AUTO 00000KT 10SM FEW024 01/00 A2926 RMK AO2 SLP907 60000 T00110000 53014 FZRANO
Temperature: 1.1°C ( 34°F)
Dewpoint: 0.0°C ( 32°F) [RH = 92%]
Pressure (altimeter):29.26 inches Hg ( 990.9 mb) [Sea level pressure: 990.7 mb]
Winds:calm
Visibility:10 or more sm (16+ km)
Ceiling:at least 12,000 feet AGL
Clouds: few clouds at 2400 feet AGL
QC Flag:automated observation with no human augmentation
Text:PADK 262026Z AUTO 00000KT 10SM FEW017 SCT022 BKN030 02/01 A2925 RMK AO2 FZRANO
Temperature: 2.0°C ( 36°F)
Dewpoint: 1.0°C ( 34°F) [RH = 93%]
Pressure (altimeter):29.25 inches Hg ( 990.6 mb)
Winds:calm
Visibility:10 or more sm (16+ km)
Ceiling:3000 feet AGL
Clouds: few clouds at 1700 feet AGL, scattered clouds at 2200 feet AGL, broken clouds at 3000 feet AGL
QC Flag:automated observation with no human augmentation
Text:PADK 261956Z AUTO 00000KT 10SM SCT010 OVC021 01/00 A2924 RMK AO2 SLPNO T00060000 FZRANO
Temperature: 0.6°C ( 33°F)
Dewpoint: 0.0°C ( 32°F) [RH = 96%]
Pressure (altimeter):29.24 inches Hg ( 990.3 mb)
Winds:calm
Visibility:10 or more sm (16+ km)
Ceiling:2100 feet AGL
Clouds: scattered clouds at 1000 feet AGL, overcast cloud deck at 2100 feet AGL
QC Flag:automated observation with no human augmentation
Text:PADK 261929Z AUTO 00000KT 10SM FEW008 BKN019 BKN033 00/M01 A2924 RMK AO2 FZRANO
Temperature: 0.0°C ( 32°F)
Dewpoint: -1.0°C ( 30°F) [RH = 93%]
Pressure (altimeter):29.24 inches Hg ( 990.3 mb)
Winds:calm
Visibility:10 or more sm (16+ km)
Ceiling:1900 feet AGL
Clouds: few clouds at 800 feet AGL, broken clouds at 1900 feet AGL, broken clouds at 3300 feet AGL
QC Flag:automated observation with no human augmentation
Text:PADK 261856Z AUTO 34003KT 10SM FEW012 BKN019 OVC031 00/M01 A2923 RMK AO2 UPE43SNB26E35 SLPNO P0000 T00001011 FZRANO
Temperature: 0.0°C ( 32°F)
Dewpoint: -1.1°C ( 30°F) [RH = 92%]
Pressure (altimeter):29.23 inches Hg ( 989.9 mb)
Winds:from the NNW (340 degrees) at 3 MPH (3 knots; 1.5 m/s)
Visibility:10 or more sm (16+ km)
Ceiling:1900 feet AGL
Clouds: few clouds at 1200 feet AGL, broken clouds at 1900 feet AGL, overcast cloud deck at 3100 feet AGL
QC Flag:automated observation with no human augmentation
Text:PADK 261838Z AUTO 00000KT 7SM UP SCT010 BKN019 OVC026 00/M01 A2922 RMK AO2 SNB26E35 P0000 FZRANO
Temperature: 0.0°C ( 32°F)
Dewpoint: -1.0°C ( 30°F) [RH = 93%]
Pressure (altimeter):29.22 inches Hg ( 989.6 mb)
Winds:calm
Visibility: 7 sm ( 11 km)
Ceiling:1900 feet AGL
Clouds: scattered clouds at 1000 feet AGL, broken clouds at 1900 feet AGL, overcast cloud deck at 2600 feet AGL
Weather:UP (unknown precipitation)
QC Flag:automated observation with no human augmentation
Text:PADK 261814Z AUTO 00000KT 10SM UP FEW009 BKN013 OVC019 00/M01 A2922 RMK AO2 P0000 FZRANO
Temperature: 0.0°C ( 32°F)
Dewpoint: -1.0°C ( 30°F) [RH = 93%]
Pressure (altimeter):29.22 inches Hg ( 989.6 mb)
Winds:calm
Visibility:10 or more sm (16+ km)
Ceiling:1300 feet AGL
Clouds: few clouds at 900 feet AGL, broken clouds at 1300 feet AGL, overcast cloud deck at 1900 feet AGL
Weather:UP (unknown precipitation)
QC Flag:automated observation with no human augmentation
Text:PADK 261756Z AUTO 00000KT 10SM UP BKN017 BKN026 00/M01 A2921 RMK AO2 SNB28E37 SLPNO P0000 60000 T00001011 10006 20000 51008 FZRANO
Temperature: 0.0°C ( 32°F)
Dewpoint: -1.1°C ( 30°F) [RH = 92%]
Pressure (altimeter):29.21 inches Hg ( 989.2 mb)
Winds:calm
Visibility:10 or more sm (16+ km)
Ceiling:1700 feet AGL
Clouds: broken clouds at 1700 feet AGL, broken clouds at 2600 feet AGL
Weather:UP (unknown precipitation)
QC Flag:automated observation with no human augmentation
Text:PADK 261710Z AUTO 00000KT 10SM UP FEW007 SCT011 OVC020 00/M01 A2921 RMK AO2 P0000 FZRANO
Temperature: 0.0°C ( 32°F)
Dewpoint: -1.0°C ( 30°F) [RH = 93%]
Pressure (altimeter):29.21 inches Hg ( 989.2 mb)
Winds:calm
Visibility:10 or more sm (16+ km)
Ceiling:2000 feet AGL
Clouds: few clouds at 700 feet AGL, scattered clouds at 1100 feet AGL, overcast cloud deck at 2000 feet AGL
Weather:UP (unknown precipitation)
QC Flag:automated observation with no human augmentation
Text:PADK 261656Z AUTO 00000KT 8SM UP SCT007 BKN011 OVC018 00/M01 A2921 RMK AO2 UPE09B40 SLPNO P0000 T00001011 FZRANO
Temperature: 0.0°C ( 32°F)
Dewpoint: -1.1°C ( 30°F) [RH = 92%]
Pressure (altimeter):29.21 inches Hg ( 989.2 mb)
Winds:calm
Visibility: 8 sm ( 13 km)
Ceiling:1100 feet AGL
Clouds: scattered clouds at 700 feet AGL, broken clouds at 1100 feet AGL, overcast cloud deck at 1800 feet AGL
Weather:UP (unknown precipitation)
QC Flag:automated observation with no human augmentation
Text:PADK 261556Z AUTO 04004KT 8SM UP SCT005 OVC010 00/M01 A2920 RMK AO2 CIG 009V013 SLPNO P0000 T00001011 FZRANO
Temperature: 0.0°C ( 32°F)
Dewpoint: -1.1°C ( 30°F) [RH = 92%]
Pressure (altimeter):29.20 inches Hg ( 988.9 mb)
Winds:from the NE (40 degrees) at 5 MPH (4 knots; 2.1 m/s)
Visibility: 8 sm ( 13 km)
Ceiling:1000 feet AGL
Clouds: scattered clouds at 500 feet AGL, overcast cloud deck at 1000 feet AGL
Weather:UP (unknown precipitation)
QC Flag:automated observation with no human augmentation
Text:PADK 261548Z AUTO 04003KT 5SM UP BR OVC010 00/M01 A2920 RMK AO2 CIG 007V013 P0000 FZRANO
Temperature: 0.0°C ( 32°F)
Dewpoint: -1.0°C ( 30°F) [RH = 93%]
Pressure (altimeter):29.20 inches Hg ( 988.9 mb)
Winds:from the NE (40 degrees) at 3 MPH (3 knots; 1.5 m/s)
Visibility: 5 sm ( 8 km)
Ceiling:1000 feet AGL
Clouds: overcast cloud deck at 1000 feet AGL
Weather:BR UP (mist, unknown precipitation)
QC Flag:automated observation with no human augmentation
Text:PADK 261534Z AUTO 00000KT 4SM UP BR BKN008 OVC014 00/M01 A2920 RMK AO2 CIG 006V010 P0000 FZRANO
Temperature: 0.0°C ( 32°F)
Dewpoint: -1.0°C ( 30°F) [RH = 93%]
Pressure (altimeter):29.20 inches Hg ( 988.9 mb)
Winds:calm
Visibility: 4 sm ( 6 km)
Ceiling:800 feet AGL
Clouds: broken clouds at 800 feet AGL, overcast cloud deck at 1400 feet AGL
Weather:BR UP (mist, unknown precipitation)
QC Flag:automated observation with no human augmentation

TAF for:PADK (Adak (NAS), AK, US)
Text:No data found